Time;durP1;ratioP1;P1;durP2;ratioP2;P2;SDS_P1;SDS_P2;PMS_P1;PMS_P2;Temp;Humidity;BMP_temperature;BMP_pressure;BME280_temperature;BME280_humidity;BME280_pressure;Samples;Min_cycle;Max_cycle;Signal;HPM_P1;HPM_P2
2022/04/08 08:07:18;;;;;;;5.13;1.20;;;14.60;73.10;;;;;;2300409;62;30153;-84
2022/04/08 08:09:45;;;;;;;3.05;0.98;;;14.50;71.70;;;;;;2291224;62;30178;-81
2022/04/08 08:12:11;;;;;;;4.13;1.25;;;14.60;72.90;;;;;;2290917;62;30245;-83
2022/04/08 08:14:37;;;;;;;2.28;0.80;;;14.60;73.90;;;;;;2291409;62;30851;-89
2022/04/08 08:17:04;;;;;;;3.35;1.02;;;14.50;74.40;;;;;;2283813;62;30162;-79
2022/04/08 08:19:32;;;;;;;1.63;1.00;;;14.50;75.00;;;;;;2284253;62;29945;-79
2022/04/08 08:21:58;;;;;;;1.95;1.10;;;14.50;75.50;;;;;;2283968;62;30139;-85
2022/04/08 08:24:24;;;;;;;3.40;1.17;;;14.50;75.90;;;;;;2291041;62;30072;-80
2022/04/08 08:26:50;;;;;;;2.10;0.77;;;14.40;76.20;;;;;;2290643;62;30268;-88
2022/04/08 08:29:16;;;;;;;3.85;1.25;;;14.40;76.40;;;;;;2291141;62;30064;-86
2022/04/08 08:31:42;;;;;;;2.42;0.88;;;14.40;76.60;;;;;;2290808;62;30351;-80
2022/04/08 08:34:08;;;;;;;1.42;0.90;;;14.40;76.80;;;;;;2286812;62;30116;-79
2022/04/08 08:36:34;;;;;;;3.28;1.17;;;14.40;76.80;;;;;;2275524;62;30203;-84
2022/04/08 08:39:00;;;;;;;3.47;1.60;;;14.40;76.80;;;;;;2282752;62;30152;-83
2022/04/08 08:41:34;;;;;;;2.08;1.17;;;14.40;76.70;;;;;;2275584;62;30059;-80
2022/04/08 08:44:05;;;;;;;2.88;0.70;;;14.40;76.70;;;;;;2282442;62;30113;-78
2022/04/08 08:46:32;;;;;;;4.13;1.00;;;14.50;76.70;;;;;;2282245;62;31837;-79
2022/04/08 08:48:58;;;;;;;3.65;1.33;;;14.40;76.60;;;;;;2268297;62;30351;-86
2022/04/08 08:51:24;;;;;;;2.60;1.10;;;14.40;76.50;;;;;;2275209;62;30019;-83
2022/04/08 08:53:50;;;;;;;1.98;1.25;;;14.40;76.50;;;;;;2282248;62;30822;-84
2022/04/08 08:56:16;;;;;;;3.35;1.00;;;14.50;76.40;;;;;;2286229;62;30476;-85
2022/04/08 08:58:41;;;;;;;2.33;1.08;;;14.50;76.40;;;;;;2290369;62;30107;-81
2022/04/08 09:01:09;;;;;;;2.25;0.90;;;14.50;76.30;;;;;;2291079;62;30221;-83
2022/04/08 09:03:35;;;;;;;2.17;1.00;;;14.40;76.80;;;;;;2276887;62;30184;-82
2022/04/08 09:06:08;;;;;;;2.40;0.88;;;14.40;76.10;;;;;;2290582;62;30508;-85
2022/04/08 09:08:34;;;;;;;2.50;0.98;;;14.50;75.80;;;;;;2269117;62;30107;-80
2022/04/08 09:11:02;;;;;;;1.58;1.00;;;14.50;75.90;;;;;;2275544;62;30321;-76
2022/04/08 09:13:28;;;;;;;2.88;0.98;;;14.50;75.80;;;;;;2282631;62;30031;-76
2022/04/08 09:15:56;;;;;;;3.25;1.02;;;14.50;75.70;;;;;;2282704;62;30253;-77
2022/04/08 09:18:22;;;;;;;2.13;1.02;;;14.50;75.70;;;;;;2277961;62;30142;-81
2022/04/08 09:20:49;;;;;;;2.08;0.95;;;14.50;75.60;;;;;;2271515;62;29968;-79
2022/04/08 09:23:19;;;;;;;4.90;1.20;;;14.50;75.60;;;;;;2271336;62;30229;-81
2022/04/08 09:25:49;;;;;;;3.70;1.20;;;14.40;75.50;;;;;;2278497;62;30469;-80
2022/04/08 09:28:16;;;;;;;4.05;1.00;;;14.40;75.40;;;;;;2270947;62;30266;-83
2022/04/08 09:30:47;;;;;;;1.77;1.17;;;14.40;75.50;;;;;;2272676;62;30313;-83
2022/04/08 09:33:14;;;;;;;11.73;1.60;;;14.40;75.30;;;;;;2269562;62;31789;-79
2022/04/08 09:35:40;;;;;;;1.67;1.00;;;14.50;75.40;;;;;;2276819;62;30740;-80
2022/04/08 09:38:06;;;;;;;5.03;1.48;;;14.50;75.40;;;;;;2276167;62;30177;-76
2022/04/08 09:40:36;;;;;;;3.05;1.00;;;14.50;75.50;;;;;;2285220;62;30332;-76
2022/04/08 09:43:02;;;;;;;2.20;0.90;;;14.50;75.20;;;;;;2285128;62;32078;-76
2022/04/08 09:45:32;;;;;;;3.05;1.27;;;14.50;75.10;;;;;;2285284;62;30353;-76
2022/04/08 09:47:58;;;;;;;4.45;1.30;;;14.50;75.00;;;;;;2277540;62;30175;-77
2022/04/08 09:50:24;;;;;;;3.15;1.40;;;14.50;74.90;;;;;;2285219;62;30053;-77
2022/04/08 09:52:50;;;;;;;2.47;1.17;;;14.50;74.70;;;;;;2285113;62;31072;-79
2022/04/08 09:55:17;;;;;;;2.30;1.10;;;14.60;75.00;;;;;;2277385;62;30195;-78
2022/04/08 09:57:42;;;;;;;2.47;1.20;;;14.60;74.70;;;;;;2277826;62;30097;-78
2022/04/08 10:00:09;;;;;;;2.70;1.20;;;14.60;74.50;;;;;;2277976;62;30112;-78
2022/04/08 10:02:55;;;;;;;2.20;1.02;;;14.60;74.50;;;;;;2284999;62;30118;-77
2022/04/08 10:05:22;;;;;;;2.22;1.00;;;14.70;74.10;;;;;;2284939;62;30057;-76
2022/04/08 16:38:19;;;;;;;8.65;2.28;;;17.70;60.20;;;;;;2588102;53;30526;-42
2022/04/08 17:04:23;;;;;;;19.95;2.70;;;17.30;62.80;;;;;;2674766;52;29992;-39
